Broadway, Washington
Current Conditions -  °F | °C
As of 9:53 PM on Tuesday 27 Jan 2015 (Local Time) from KBFI Reporting Station
Overcast Overcast  
Wind Chill: 51°   Ceiling: 600
Heat Index: 51°   Visibility: 10mi
Dew Point: 45°   Wind: 6mph
Humidity: 80%   Direction: 60°ENE
Pressure: 30.25"   Gusts: NA
Location:  47.6341°N, 122.322°W
Report Text: KBFI 280553Z 06005KT 10SM BKN006 OVC013 11/07 A3025 RMK AO2 SLP242 60001 T01060072 10128 20106 53028
Loading
Personal Weather Stations






























Interactive Weather Map New forecast layout! Learn more

10-Day Weather Forecast

Advertisements
Track Severe Weather on mobile